sensor_id;sensor_type;location;lat;lon;timestamp;temperature;humidity
52387;DHT22;38317;53.084;6.960;2022-08-27T00:00:16;17.70;99.90
52387;DHT22;38317;53.084;6.960;2022-08-27T00:02:43;17.70;99.90
52387;DHT22;38317;53.084;6.960;2022-08-27T00:05:11;17.70;99.90
52387;DHT22;38317;53.084;6.960;2022-08-27T00:07:37;17.70;99.90
52387;DHT22;38317;53.084;6.960;2022-08-27T00:10:06;17.70;99.90
52387;DHT22;38317;53.084;6.960;2022-08-27T00:12:33;17.70;99.90
52387;DHT22;38317;53.084;6.960;2022-08-27T00:14:59;17.70;99.90
52387;DHT22;38317;53.084;6.960;2022-08-27T00:17:25;17.70;99.90
52387;DHT22;38317;53.084;6.960;2022-08-27T00:19:51;17.70;99.90
52387;DHT22;38317;53.084;6.960;2022-08-27T00:22:17;17.70;99.90
52387;DHT22;38317;53.084;6.960;2022-08-27T00:24:42;17.70;99.90
52387;DHT22;38317;53.084;6.960;2022-08-27T00:27:08;17.60;99.90
52387;DHT22;38317;53.084;6.960;2022-08-27T00:29:34;17.60;99.90
52387;DHT22;38317;53.084;6.960;2022-08-27T00:32:00;17.60;99.90
52387;DHT22;38317;53.084;6.960;2022-08-27T00:34:25;17.60;99.90
52387;DHT22;38317;53.084;6.960;2022-08-27T00:36:52;17.60;99.90
52387;DHT22;38317;53.084;6.960;2022-08-27T00:39:18;17.70;99.90
52387;DHT22;38317;53.084;6.960;2022-08-27T00:41:45;17.60;99.90
52387;DHT22;38317;53.084;6.960;2022-08-27T00:44:11;17.60;99.90
52387;DHT22;38317;53.084;6.960;2022-08-27T00:46:48;17.70;99.90
52387;DHT22;38317;53.084;6.960;2022-08-27T00:49:36;17.60;99.90
52387;DHT22;38317;53.084;6.960;2022-08-27T00:52:21;17.60;99.90
52387;DHT22;38317;53.084;6.960;2022-08-27T00:54:51;17.60;99.90
52387;DHT22;38317;53.084;6.960;2022-08-27T00:57:18;17.70;99.90
52387;DHT22;38317;53.084;6.960;2022-08-27T00:59:44;17.70;99.90
52387;DHT22;38317;53.084;6.960;2022-08-27T01:02:10;17.60;99.90
52387;DHT22;38317;53.084;6.960;2022-08-27T01:05:14;17.50;99.90
52387;DHT22;38317;53.084;6.960;2022-08-27T01:07:43;17.50;99.90
52387;DHT22;38317;53.084;6.960;2022-08-27T01:10:14;17.50;99.90
52387;DHT22;38317;53.084;6.960;2022-08-27T01:12:40;17.40;99.90
52387;DHT22;38317;53.084;6.960;2022-08-27T01:15:10;17.40;99.90
52387;DHT22;38317;53.084;6.960;2022-08-27T01:17:38;17.40;99.90
52387;DHT22;38317;53.084;6.960;2022-08-27T01:20:09;17.40;99.90
52387;DHT22;38317;53.084;6.960;2022-08-27T01:22:51;17.30;99.90
52387;DHT22;38317;53.084;6.960;2022-08-27T01:25:20;17.30;99.90
52387;DHT22;38317;53.084;6.960;2022-08-27T01:27:48;17.20;99.90
52387;DHT22;38317;53.084;6.960;2022-08-27T01:30:18;17.20;99.90
52387;DHT22;38317;53.084;6.960;2022-08-27T01:32:45;17.10;99.90
52387;DHT22;38317;53.084;6.960;2022-08-27T01:35:13;17.10;99.90
52387;DHT22;38317;53.084;6.960;2022-08-27T01:37:40;17.10;99.90
52387;DHT22;38317;53.084;6.960;2022-08-27T01:40:07;17.00;99.90
52387;DHT22;38317;53.084;6.960;2022-08-27T01:42:38;17.00;99.90
52387;DHT22;38317;53.084;6.960;2022-08-27T01:45:14;17.00;99.90
52387;DHT22;38317;53.084;6.960;2022-08-27T01:47:42;17.00;99.90
52387;DHT22;38317;53.084;6.960;2022-08-27T01:50:12;16.90;99.90
52387;DHT22;38317;53.084;6.960;2022-08-27T01:52:38;16.90;99.90
52387;DHT22;38317;53.084;6.960;2022-08-27T01:55:07;16.90;99.90
52387;DHT22;38317;53.084;6.960;2022-08-27T01:57:33;16.90;99.90
52387;DHT22;38317;53.084;6.960;2022-08-27T02:00:08;16.80;99.90
52387;DHT22;38317;53.084;6.960;2022-08-27T02:02:34;16.80;99.90
52387;DHT22;38317;53.084;6.960;2022-08-27T02:05:00;16.80;99.90
52387;DHT22;38317;53.084;6.960;2022-08-27T02:07:26;16.80;99.90
52387;DHT22;38317;53.084;6.960;2022-08-27T02:09:52;16.80;99.90
52387;DHT22;38317;53.084;6.960;2022-08-27T02:12:18;16.80;99.90
52387;DHT22;38317;53.084;6.960;2022-08-27T02:14:43;16.70;99.90
52387;DHT22;38317;53.084;6.960;2022-08-27T02:17:09;16.70;99.90
52387;DHT22;38317;53.084;6.960;2022-08-27T02:19:37;16.70;99.90
52387;DHT22;38317;53.084;6.960;2022-08-27T02:22:02;16.70;99.90
52387;DHT22;38317;53.084;6.960;2022-08-27T02:24:28;16.70;99.90
52387;DHT22;38317;53.084;6.960;2022-08-27T02:26:55;16.70;99.90
52387;DHT22;38317;53.084;6.960;2022-08-27T02:29:22;16.80;99.90
52387;DHT22;38317;53.084;6.960;2022-08-27T02:31:48;16.80;99.90
52387;DHT22;38317;53.084;6.960;2022-08-27T02:34:15;16.80;99.90
52387;DHT22;38317;53.084;6.960;2022-08-27T02:36:41;16.80;99.90
52387;DHT22;38317;53.084;6.960;2022-08-27T02:39:09;16.80;99.90
52387;DHT22;38317;53.084;6.960;2022-08-27T02:41:34;16.80;99.90
52387;DHT22;38317;53.084;6.960;2022-08-27T02:44:02;16.80;99.90
52387;DHT22;38317;53.084;6.960;2022-08-27T02:46:28;16.90;99.90
52387;DHT22;38317;53.084;6.960;2022-08-27T02:48:54;16.90;99.90
52387;DHT22;38317;53.084;6.960;2022-08-27T02:51:20;16.90;99.90
52387;DHT22;38317;53.084;6.960;2022-08-27T02:53:46;16.90;99.90
52387;DHT22;38317;53.084;6.960;2022-08-27T02:56:12;16.90;99.90
52387;DHT22;38317;53.084;6.960;2022-08-27T02:58:38;16.90;99.90
52387;DHT22;38317;53.084;6.960;2022-08-27T03:01:06;16.90;99.90
52387;DHT22;38317;53.084;6.960;2022-08-27T03:03:31;16.90;99.90
52387;DHT22;38317;53.084;6.960;2022-08-27T03:05:57;17.00;99.90
52387;DHT22;38317;53.084;6.960;2022-08-27T03:08:27;17.00;99.90
52387;DHT22;38317;53.084;6.960;2022-08-27T03:10:53;17.00;99.90
52387;DHT22;38317;53.084;6.960;2022-08-27T03:13:20;17.00;99.90
52387;DHT22;38317;53.084;6.960;2022-08-27T03:15:46;17.00;99.90
52387;DHT22;38317;53.084;6.960;2022-08-27T03:18:12;17.00;99.90
52387;DHT22;38317;53.084;6.960;2022-08-27T03:20:52;17.00;99.90
52387;DHT22;38317;53.084;6.960;2022-08-27T03:23:21;17.00;99.90
52387;DHT22;38317;53.084;6.960;2022-08-27T03:25:55;17.00;99.90
52387;DHT22;38317;53.084;6.960;2022-08-27T03:28:27;17.00;99.90
52387;DHT22;38317;53.084;6.960;2022-08-27T03:31:03;17.10;99.90
52387;DHT22;38317;53.084;6.960;2022-08-27T03:33:32;17.00;99.90
52387;DHT22;38317;53.084;6.960;2022-08-27T03:35:58;17.00;99.90
52387;DHT22;38317;53.084;6.960;2022-08-27T03:38:25;17.00;99.90
52387;DHT22;38317;53.084;6.960;2022-08-27T03:40:51;17.00;99.90
52387;DHT22;38317;53.084;6.960;2022-08-27T03:43:19;17.00;99.90
52387;DHT22;38317;53.084;6.960;2022-08-27T03:45:46;17.00;99.90
52387;DHT22;38317;53.084;6.960;2022-08-27T03:48:12;17.00;99.90
52387;DHT22;38317;53.084;6.960;2022-08-27T03:50:40;16.90;99.90
52387;DHT22;38317;53.084;6.960;2022-08-27T03:53:07;17.00;99.90
52387;DHT22;38317;53.084;6.960;2022-08-27T03:55:32;16.90;99.90
52387;DHT22;38317;53.084;6.960;2022-08-27T03:57:58;16.90;99.90
52387;DHT22;38317;53.084;6.960;2022-08-27T04:00:24;16.90;99.90
52387;DHT22;38317;53.084;6.960;2022-08-27T04:02:52;16.90;99.90
52387;DHT22;38317;53.084;6.960;2022-08-27T04:05:19;16.90;99.90
52387;DHT22;38317;53.084;6.960;2022-08-27T04:07:47;16.80;99.90
52387;DHT22;38317;53.084;6.960;2022-08-27T04:10:14;16.70;99.90
52387;DHT22;38317;53.084;6.960;2022-08-27T04:12:41;16.70;99.90
52387;DHT22;38317;53.084;6.960;2022-08-27T04:15:08;16.70;99.90
52387;DHT22;38317;53.084;6.960;2022-08-27T04:17:34;16.60;99.90
52387;DHT22;38317;53.084;6.960;2022-08-27T04:20:00;16.60;99.90
52387;DHT22;38317;53.084;6.960;2022-08-27T04:22:26;16.50;99.90
52387;DHT22;38317;53.084;6.960;2022-08-27T04:24:52;16.50;99.90
52387;DHT22;38317;53.084;6.960;2022-08-27T04:27:19;16.40;99.90
52387;DHT22;38317;53.084;6.960;2022-08-27T04:29:46;16.40;99.90
52387;DHT22;38317;53.084;6.960;2022-08-27T04:32:12;16.30;99.90
52387;DHT22;38317;53.084;6.960;2022-08-27T04:34:38;16.30;99.90
52387;DHT22;38317;53.084;6.960;2022-08-27T04:37:04;16.30;99.90
52387;DHT22;38317;53.084;6.960;2022-08-27T04:39:31;16.20;99.90
52387;DHT22;38317;53.084;6.960;2022-08-27T04:41:58;16.10;99.90
52387;DHT22;38317;53.084;6.960;2022-08-27T04:44:27;16.10;99.90
52387;DHT22;38317;53.084;6.960;2022-08-27T04:46:55;16.10;99.90
52387;DHT22;38317;53.084;6.960;2022-08-27T04:49:22;16.00;99.90
52387;DHT22;38317;53.084;6.960;2022-08-27T04:51:48;16.10;99.90
52387;DHT22;38317;53.084;6.960;2022-08-27T04:54:14;16.00;99.90
52387;DHT22;38317;53.084;6.960;2022-08-27T04:56:40;16.00;99.90
52387;DHT22;38317;53.084;6.960;2022-08-27T04:59:07;16.00;99.90
52387;DHT22;38317;53.084;6.960;2022-08-27T05:01:35;16.00;99.90
52387;DHT22;38317;53.084;6.960;2022-08-27T05:04:01;16.00;99.90
52387;DHT22;38317;53.084;6.960;2022-08-27T05:06:27;16.00;99.90
52387;DHT22;38317;53.084;6.960;2022-08-27T05:08:53;16.00;99.90
52387;DHT22;38317;53.084;6.960;2022-08-27T05:11:20;16.00;99.90
52387;DHT22;38317;53.084;6.960;2022-08-27T05:13:46;16.00;99.90
52387;DHT22;38317;53.084;6.960;2022-08-27T05:16:18;16.00;99.90
52387;DHT22;38317;53.084;6.960;2022-08-27T05:18:45;16.00;99.90
52387;DHT22;38317;53.084;6.960;2022-08-27T05:21:26;16.10;99.90
52387;DHT22;38317;53.084;6.960;2022-08-27T05:23:53;16.10;99.90
52387;DHT22;38317;53.084;6.960;2022-08-27T05:26:21;16.10;99.90
52387;DHT22;38317;53.084;6.960;2022-08-27T05:28:47;16.20;99.90
52387;DHT22;38317;53.084;6.960;2022-08-27T05:31:14;16.20;99.90
52387;DHT22;38317;53.084;6.960;2022-08-27T05:33:41;16.30;99.90
52387;DHT22;38317;53.084;6.960;2022-08-27T05:36:14;16.30;99.90
52387;DHT22;38317;53.084;6.960;2022-08-27T05:38:40;16.40;99.90
52387;DHT22;38317;53.084;6.960;2022-08-27T05:41:12;16.40;99.90
52387;DHT22;38317;53.084;6.960;2022-08-27T05:43:40;16.40;99.90
52387;DHT22;38317;53.084;6.960;2022-08-27T05:46:08;16.50;99.90
52387;DHT22;38317;53.084;6.960;2022-08-27T05:48:35;16.40;99.90
52387;DHT22;38317;53.084;6.960;2022-08-27T05:51:21;16.50;99.90
52387;DHT22;38317;53.084;6.960;2022-08-27T05:53:48;16.40;99.90
52387;DHT22;38317;53.084;6.960;2022-08-27T05:56:19;16.40;99.90
52387;DHT22;38317;53.084;6.960;2022-08-27T05:58:46;16.40;99.90
52387;DHT22;38317;53.084;6.960;2022-08-27T06:01:32;16.40;99.90
52387;DHT22;38317;53.084;6.960;2022-08-27T06:03:59;16.40;99.90
52387;DHT22;38317;53.084;6.960;2022-08-27T06:06:25;16.40;99.90
52387;DHT22;38317;53.084;6.960;2022-08-27T06:08:52;16.40;99.90
52387;DHT22;38317;53.084;6.960;2022-08-27T06:11:18;16.40;99.90
52387;DHT22;38317;53.084;6.960;2022-08-27T06:13:45;16.40;99.90
52387;DHT22;38317;53.084;6.960;2022-08-27T06:16:14;16.40;99.90
52387;DHT22;38317;53.084;6.960;2022-08-27T06:18:42;16.40;99.90
52387;DHT22;38317;53.084;6.960;2022-08-27T06:21:10;16.40;99.90
52387;DHT22;38317;53.084;6.960;2022-08-27T06:23:36;16.40;99.90
52387;DHT22;38317;53.084;6.960;2022-08-27T06:26:06;16.40;99.90
52387;DHT22;38317;53.084;6.960;2022-08-27T06:28:32;16.50;99.90
52387;DHT22;38317;53.084;6.960;2022-08-27T06:31:05;16.50;99.90
52387;DHT22;38317;53.084;6.960;2022-08-27T06:33:32;16.50;99.90
52387;DHT22;38317;53.084;6.960;2022-08-27T06:35:59;16.60;99.90
52387;DHT22;38317;53.084;6.960;2022-08-27T06:38:25;16.50;99.90
52387;DHT22;38317;53.084;6.960;2022-08-27T06:40:51;16.60;99.90
52387;DHT22;38317;53.084;6.960;2022-08-27T06:43:18;16.60;99.90
52387;DHT22;38317;53.084;6.960;2022-08-27T06:45:43;16.70;99.90
52387;DHT22;38317;53.084;6.960;2022-08-27T06:48:09;16.70;99.90
52387;DHT22;38317;53.084;6.960;2022-08-27T06:50:39;16.70;99.90
52387;DHT22;38317;53.084;6.960;2022-08-27T06:53:06;16.70;99.90
52387;DHT22;38317;53.084;6.960;2022-08-27T06:55:32;16.70;99.90
52387;DHT22;38317;53.084;6.960;2022-08-27T06:57:58;16.70;99.90
52387;DHT22;38317;53.084;6.960;2022-08-27T07:00:24;16.80;99.90
52387;DHT22;38317;53.084;6.960;2022-08-27T07:02:50;17.00;99.90
52387;DHT22;38317;53.084;6.960;2022-08-27T07:05:16;17.20;99.90
52387;DHT22;38317;53.084;6.960;2022-08-27T07:07:43;17.30;99.90
52387;DHT22;38317;53.084;6.960;2022-08-27T07:10:09;17.60;99.90
52387;DHT22;38317;53.084;6.960;2022-08-27T07:12:35;17.70;99.90
52387;DHT22;38317;53.084;6.960;2022-08-27T07:15:01;17.80;99.90
52387;DHT22;38317;53.084;6.960;2022-08-27T07:17:26;17.90;99.90
52387;DHT22;38317;53.084;6.960;2022-08-27T07:19:52;18.00;99.90
52387;DHT22;38317;53.084;6.960;2022-08-27T07:22:18;18.10;99.90
52387;DHT22;38317;53.084;6.960;2022-08-27T07:24:44;18.20;99.90
52387;DHT22;38317;53.084;6.960;2022-08-27T07:27:10;18.30;99.90
52387;DHT22;38317;53.084;6.960;2022-08-27T07:29:35;18.30;99.90
52387;DHT22;38317;53.084;6.960;2022-08-27T07:32:01;18.40;99.90
52387;DHT22;38317;53.084;6.960;2022-08-27T07:34:27;18.40;99.90
52387;DHT22;38317;53.084;6.960;2022-08-27T07:36:53;18.40;99.90
52387;DHT22;38317;53.084;6.960;2022-08-27T07:39:19;18.40;99.90
52387;DHT22;38317;53.084;6.960;2022-08-27T07:41:45;18.40;99.90
52387;DHT22;38317;53.084;6.960;2022-08-27T07:44:30;18.40;99.90
52387;DHT22;38317;53.084;6.960;2022-08-27T07:46:56;18.30;99.90
52387;DHT22;38317;53.084;6.960;2022-08-27T07:49:25;18.30;99.90
52387;DHT22;38317;53.084;6.960;2022-08-27T07:51:51;18.40;99.90
52387;DHT22;38317;53.084;6.960;2022-08-27T07:54:20;18.40;99.90
52387;DHT22;38317;53.084;6.960;2022-08-27T07:56:46;18.50;99.90
52387;DHT22;38317;53.084;6.960;2022-08-27T07:59:12;18.50;99.90
52387;DHT22;38317;53.084;6.960;2022-08-27T08:01:38;18.80;99.90
52387;DHT22;38317;53.084;6.960;2022-08-27T08:04:07;19.00;99.90
52387;DHT22;38317;53.084;6.960;2022-08-27T08:06:36;19.30;99.90
52387;DHT22;38317;53.084;6.960;2022-08-27T08:09:02;19.50;99.90
52387;DHT22;38317;53.084;6.960;2022-08-27T08:11:28;19.60;99.90
52387;DHT22;38317;53.084;6.960;2022-08-27T08:13:54;19.60;99.90
52387;DHT22;38317;53.084;6.960;2022-08-27T08:16:23;19.60;99.90
52387;DHT22;38317;53.084;6.960;2022-08-27T08:18:49;19.60;99.90
52387;DHT22;38317;53.084;6.960;2022-08-27T08:21:15;19.80;99.90
52387;DHT22;38317;53.084;6.960;2022-08-27T08:23:41;19.90;99.90
52387;DHT22;38317;53.084;6.960;2022-08-27T08:26:08;20.00;99.90
52387;DHT22;38317;53.084;6.960;2022-08-27T08:28:34;20.00;99.90
52387;DHT22;38317;53.084;6.960;2022-08-27T08:31:01;20.10;99.90
52387;DHT22;38317;53.084;6.960;2022-08-27T08:33:27;20.10;99.90
52387;DHT22;38317;53.084;6.960;2022-08-27T08:35:53;20.10;99.90
52387;DHT22;38317;53.084;6.960;2022-08-27T08:38:19;20.30;99.90
52387;DHT22;38317;53.084;6.960;2022-08-27T08:40:48;20.70;99.90
52387;DHT22;38317;53.084;6.960;2022-08-27T08:43:34;21.00;99.90
52387;DHT22;38317;53.084;6.960;2022-08-27T08:46:12;21.20;99.90
52387;DHT22;38317;53.084;6.960;2022-08-27T08:48:41;21.10;99.90
52387;DHT22;38317;53.084;6.960;2022-08-27T08:51:50;20.90;99.90
52387;DHT22;38317;53.084;6.960;2022-08-27T08:54:18;20.60;99.90
52387;DHT22;38317;53.084;6.960;2022-08-27T08:56:58;20.40;99.90
52387;DHT22;38317;53.084;6.960;2022-08-27T09:01:57;20.00;99.90
52387;DHT22;38317;53.084;6.960;2022-08-27T09:04:25;19.90;99.90
52387;DHT22;38317;53.084;6.960;2022-08-27T09:09:22;20.00;99.90
52387;DHT22;38317;53.084;6.960;2022-08-27T09:12:07;20.00;99.90
52387;DHT22;38317;53.084;6.960;2022-08-27T09:14:41;20.00;99.90
52387;DHT22;38317;53.084;6.960;2022-08-27T09:17:09;20.00;99.90
52387;DHT22;38317;53.084;6.960;2022-08-27T09:19:35;20.00;99.90
52387;DHT22;38317;53.084;6.960;2022-08-27T09:27:17;20.00;99.90
52387;DHT22;38317;53.084;6.960;2022-08-27T09:29:53;20.00;99.90
52387;DHT22;38317;53.084;6.960;2022-08-27T09:32:31;20.10;99.90
52387;DHT22;38317;53.084;6.960;2022-08-27T09:34:59;20.20;99.90
52387;DHT22;38317;53.084;6.960;2022-08-27T09:37:30;20.50;99.90
52387;DHT22;38317;53.084;6.960;2022-08-27T09:40:08;20.90;99.90
52387;DHT22;38317;53.084;6.960;2022-08-27T09:42:46;21.20;99.90
52387;DHT22;38317;53.084;6.960;2022-08-27T09:45:20;21.30;99.90
52387;DHT22;38317;53.084;6.960;2022-08-27T09:47:49;21.20;99.90
52387;DHT22;38317;53.084;6.960;2022-08-27T09:50:18;21.10;99.90
52387;DHT22;38317;53.084;6.960;2022-08-27T09:52:58;21.00;99.90
52387;DHT22;38317;53.084;6.960;2022-08-27T09:55:35;20.80;99.90
52387;DHT22;38317;53.084;6.960;2022-08-27T09:58:05;20.70;99.90
52387;DHT22;38317;53.084;6.960;2022-08-27T10:00:40;20.60;99.90
52387;DHT22;38317;53.084;6.960;2022-08-27T10:03:08;20.70;99.90
52387;DHT22;38317;53.084;6.960;2022-08-27T10:05:37;20.60;99.90
52387;DHT22;38317;53.084;6.960;2022-08-27T10:08:15;20.70;99.90
52387;DHT22;38317;53.084;6.960;2022-08-27T10:22:32;20.90;99.90
52387;DHT22;38317;53.084;6.960;2022-08-27T10:25:02;20.80;99.90
52387;DHT22;38317;53.084;6.960;2022-08-27T10:32:46;20.70;99.90
52387;DHT22;38317;53.084;6.960;2022-08-27T10:35:27;20.80;99.90
52387;DHT22;38317;53.084;6.960;2022-08-27T10:41:04;21.00;99.90
52387;DHT22;38317;53.084;6.960;2022-08-27T10:44:00;21.00;99.90
52387;DHT22;38317;53.084;6.960;2022-08-27T10:47:09;21.10;99.90
52387;DHT22;38317;53.084;6.960;2022-08-27T10:53:01;21.10;99.90
52387;DHT22;38317;53.084;6.960;2022-08-27T10:55:37;21.10;99.90
52387;DHT22;38317;53.084;6.960;2022-08-27T11:06:36;21.30;99.90
52387;DHT22;38317;53.084;6.960;2022-08-27T11:09:33;21.50;99.90
52387;DHT22;38317;53.084;6.960;2022-08-27T11:12:04;21.80;99.90
52387;DHT22;38317;53.084;6.960;2022-08-27T11:14:57;22.10;99.90
52387;DHT22;38317;53.084;6.960;2022-08-27T11:17:56;22.50;99.90
52387;DHT22;38317;53.084;6.960;2022-08-27T11:20:35;22.80;99.90
52387;DHT22;38317;53.084;6.960;2022-08-27T11:23:20;23.10;99.90
52387;DHT22;38317;53.084;6.960;2022-08-27T11:26:01;23.50;99.90
52387;DHT22;38317;53.084;6.960;2022-08-27T11:28:50;23.40;99.90
52387;DHT22;38317;53.084;6.960;2022-08-27T11:31:28;23.20;99.90
52387;DHT22;38317;53.084;6.960;2022-08-27T11:34:13;22.90;99.90
52387;DHT22;38317;53.084;6.960;2022-08-27T11:37:21;22.90;99.90
52387;DHT22;38317;53.084;6.960;2022-08-27T11:42:45;22.80;99.90
52387;DHT22;38317;53.084;6.960;2022-08-27T11:47:56;22.20;99.90
52387;DHT22;38317;53.084;6.960;2022-08-27T11:50:24;22.10;99.90
52387;DHT22;38317;53.084;6.960;2022-08-27T11:53:05;22.40;99.90
52387;DHT22;38317;53.084;6.960;2022-08-27T11:58:24;23.20;99.90
52387;DHT22;38317;53.084;6.960;2022-08-27T12:00:51;23.40;99.90
52387;DHT22;38317;53.084;6.960;2022-08-27T12:05:46;24.00;99.90
52387;DHT22;38317;53.084;6.960;2022-08-27T12:08:27;23.90;99.90
52387;DHT22;38317;53.084;6.960;2022-08-27T12:13:58;23.40;99.90
52387;DHT22;38317;53.084;6.960;2022-08-27T12:17:22;23.10;99.90
52387;DHT22;38317;53.084;6.960;2022-08-27T12:22:16;23.50;99.90
52387;DHT22;38317;53.084;6.960;2022-08-27T12:24:52;23.60;97.40
52387;DHT22;38317;53.084;6.960;2022-08-27T12:29:56;23.80;98.30
52387;DHT22;38317;53.084;6.960;2022-08-27T12:32:33;24.00;98.10
52387;DHT22;38317;53.084;6.960;2022-08-27T12:35:43;24.40;97.40
52387;DHT22;38317;53.084;6.960;2022-08-27T12:40:59;24.90;94.70
52387;DHT22;38317;53.084;6.960;2022-08-27T12:43:33;24.70;94.40
52387;DHT22;38317;53.084;6.960;2022-08-27T12:46:05;24.50;94.50
52387;DHT22;38317;53.084;6.960;2022-08-27T12:48:36;24.40;94.00
52387;DHT22;38317;53.084;6.960;2022-08-27T12:51:08;24.10;95.00
52387;DHT22;38317;53.084;6.960;2022-08-27T12:59:14;24.50;93.70
52387;DHT22;38317;53.084;6.960;2022-08-27T13:04:23;24.20;93.60
52387;DHT22;38317;53.084;6.960;2022-08-27T13:06:50;24.20;94.20
52387;DHT22;38317;53.084;6.960;2022-08-27T13:09:29;24.30;95.10
52387;DHT22;38317;53.084;6.960;2022-08-27T13:11:56;24.50;95.50
52387;DHT22;38317;53.084;6.960;2022-08-27T13:14:24;24.40;95.00
52387;DHT22;38317;53.084;6.960;2022-08-27T13:16:54;24.00;94.30
52387;DHT22;38317;53.084;6.960;2022-08-27T13:19:28;23.70;95.00
52387;DHT22;38317;53.084;6.960;2022-08-27T13:21:55;23.70;95.80
52387;DHT22;38317;53.084;6.960;2022-08-27T13:24:28;23.50;95.00
52387;DHT22;38317;53.084;6.960;2022-08-27T13:26:54;23.20;95.50
52387;DHT22;38317;53.084;6.960;2022-08-27T13:29:22;23.00;96.10
52387;DHT22;38317;53.084;6.960;2022-08-27T13:31:49;23.10;96.70
52387;DHT22;38317;53.084;6.960;2022-08-27T13:34:21;23.10;96.10
52387;DHT22;38317;53.084;6.960;2022-08-27T13:36:58;22.80;95.30
52387;DHT22;38317;53.084;6.960;2022-08-27T13:39:25;22.50;95.40
52387;DHT22;38317;53.084;6.960;2022-08-27T13:41:52;22.20;96.70
52387;DHT22;38317;53.084;6.960;2022-08-27T13:44:23;22.20;97.40
52387;DHT22;38317;53.084;6.960;2022-08-27T13:46:56;22.50;97.70
52387;DHT22;38317;53.084;6.960;2022-08-27T13:49:26;22.80;97.60
52387;DHT22;38317;53.084;6.960;2022-08-27T13:54:49;22.60;97.20
52387;DHT22;38317;53.084;6.960;2022-08-27T13:57:27;22.40;97.30
52387;DHT22;38317;53.084;6.960;2022-08-27T14:00:29;22.20;97.70
52387;DHT22;38317;53.084;6.960;2022-08-27T14:02:53;22.10;97.40
52387;DHT22;38317;53.084;6.960;2022-08-27T14:07:51;22.50;98.90
52387;DHT22;38317;53.084;6.960;2022-08-27T14:12:52;22.10;99.40
52387;DHT22;38317;53.084;6.960;2022-08-27T14:18:28;21.70;99.40
52387;DHT22;38317;53.084;6.960;2022-08-27T14:20:56;21.50;99.60
52387;DHT22;38317;53.084;6.960;2022-08-27T14:23:22;21.30;99.30
52387;DHT22;38317;53.084;6.960;2022-08-27T14:25:52;21.30;99.90
52387;DHT22;38317;53.084;6.960;2022-08-27T14:28:19;21.40;99.90
52387;DHT22;38317;53.084;6.960;2022-08-27T14:30:45;21.50;99.90
52387;DHT22;38317;53.084;6.960;2022-08-27T14:33:12;21.60;99.90
52387;DHT22;38317;53.084;6.960;2022-08-27T14:35:38;21.60;99.90
52387;DHT22;38317;53.084;6.960;2022-08-27T14:38:13;21.70;99.90
52387;DHT22;38317;53.084;6.960;2022-08-27T14:40:41;21.80;99.90
52387;DHT22;38317;53.084;6.960;2022-08-27T14:43:07;22.10;99.90
52387;DHT22;38317;53.084;6.960;2022-08-27T14:45:33;22.20;98.70
52387;DHT22;38317;53.084;6.960;2022-08-27T14:47:59;22.30;98.90
52387;DHT22;38317;53.084;6.960;2022-08-27T14:50:25;22.50;98.50
52387;DHT22;38317;53.084;6.960;2022-08-27T14:52:53;22.30;96.90
52387;DHT22;38317;53.084;6.960;2022-08-27T14:55:18;22.20;97.90
52387;DHT22;38317;53.084;6.960;2022-08-27T14:57:44;22.30;98.10
52387;DHT22;38317;53.084;6.960;2022-08-27T15:00:10;22.40;98.00
52387;DHT22;38317;53.084;6.960;2022-08-27T15:02:46;22.50;97.70
52387;DHT22;38317;53.084;6.960;2022-08-27T15:05:12;22.60;97.00
52387;DHT22;38317;53.084;6.960;2022-08-27T15:07:38;22.60;97.70
52387;DHT22;38317;53.084;6.960;2022-08-27T15:10:05;22.60;97.90
52387;DHT22;38317;53.084;6.960;2022-08-27T15:12:31;22.50;97.90
52387;DHT22;38317;53.084;6.960;2022-08-27T15:14:57;22.30;97.80
52387;DHT22;38317;53.084;6.960;2022-08-27T15:17:22;22.10;97.90
52387;DHT22;38317;53.084;6.960;2022-08-27T15:19:48;22.00;97.90
52387;DHT22;38317;53.084;6.960;2022-08-27T15:22:16;22.00;98.30
52387;DHT22;38317;53.084;6.960;2022-08-27T15:24:45;22.10;98.40
52387;DHT22;38317;53.084;6.960;2022-08-27T15:27:11;22.10;98.00
52387;DHT22;38317;53.084;6.960;2022-08-27T15:29:37;21.90;97.70
52387;DHT22;38317;53.084;6.960;2022-08-27T15:32:04;21.70;98.30
52387;DHT22;38317;53.084;6.960;2022-08-27T15:34:30;21.70;98.30
52387;DHT22;38317;53.084;6.960;2022-08-27T15:36:56;21.70;98.40
52387;DHT22;38317;53.084;6.960;2022-08-27T15:39:22;21.80;98.40
52387;DHT22;38317;53.084;6.960;2022-08-27T15:41:49;22.00;97.90
52387;DHT22;38317;53.084;6.960;2022-08-27T15:44:15;22.00;97.50
52387;DHT22;38317;53.084;6.960;2022-08-27T15:46:41;22.10;97.50
52387;DHT22;38317;53.084;6.960;2022-08-27T15:49:10;22.10;97.50
52387;DHT22;38317;53.084;6.960;2022-08-27T15:51:37;22.30;97.50
52387;DHT22;38317;53.084;6.960;2022-08-27T15:54:03;22.20;98.00
52387;DHT22;38317;53.084;6.960;2022-08-27T15:56:29;22.10;97.90
52387;DHT22;38317;53.084;6.960;2022-08-27T15:58:55;22.00;98.20
52387;DHT22;38317;53.084;6.960;2022-08-27T16:01:26;21.80;98.70
52387;DHT22;38317;53.084;6.960;2022-08-27T16:03:53;21.60;99.20
52387;DHT22;38317;53.084;6.960;2022-08-27T16:06:19;21.40;99.20
52387;DHT22;38317;53.084;6.960;2022-08-27T16:08:45;21.20;99.30
52387;DHT22;38317;53.084;6.960;2022-08-27T16:11:11;21.00;99.90
52387;DHT22;38317;53.084;6.960;2022-08-27T16:13:37;20.90;99.90
52387;DHT22;38317;53.084;6.960;2022-08-27T16:16:03;20.90;99.90
52387;DHT22;38317;53.084;6.960;2022-08-27T16:18:32;20.90;99.90
52387;DHT22;38317;53.084;6.960;2022-08-27T16:21:00;20.80;99.90
52387;DHT22;38317;53.084;6.960;2022-08-27T16:23:27;20.80;99.90
52387;DHT22;38317;53.084;6.960;2022-08-27T16:25:53;20.60;99.80
52387;DHT22;38317;53.084;6.960;2022-08-27T16:28:20;20.60;99.90
52387;DHT22;38317;53.084;6.960;2022-08-27T16:30:47;20.40;99.90
52387;DHT22;38317;53.084;6.960;2022-08-27T16:33:13;20.40;99.90
52387;DHT22;38317;53.084;6.960;2022-08-27T16:35:39;20.40;99.90
52387;DHT22;38317;53.084;6.960;2022-08-27T16:38:05;20.40;99.90
52387;DHT22;38317;53.084;6.960;2022-08-27T16:40:48;20.20;99.90
52387;DHT22;38317;53.084;6.960;2022-08-27T16:43:19;20.20;99.90
52387;DHT22;38317;53.084;6.960;2022-08-27T16:45:47;20.10;99.90
52387;DHT22;38317;53.084;6.960;2022-08-27T16:48:14;20.00;99.90
52387;DHT22;38317;53.084;6.960;2022-08-27T16:50:58;20.00;99.90
52387;DHT22;38317;53.084;6.960;2022-08-27T16:53:24;20.00;99.90
52387;DHT22;38317;53.084;6.960;2022-08-27T16:55:51;19.90;99.90
52387;DHT22;38317;53.084;6.960;2022-08-27T16:58:26;19.90;99.90
52387;DHT22;38317;53.084;6.960;2022-08-27T17:00:57;19.80;99.90
52387;DHT22;38317;53.084;6.960;2022-08-27T17:03:24;19.80;99.90
52387;DHT22;38317;53.084;6.960;2022-08-27T17:05:50;19.70;99.90
52387;DHT22;38317;53.084;6.960;2022-08-27T17:08:18;19.70;99.90